Time;durP1;ratioP1;P1;durP2;ratioP2;P2;SDS_P1;SDS_P2;PMS_P1;PMS_P2;Temp;Humidity;BMP_temperature;BMP_pressure;BME280_temperature;BME280_humidity;BME280_pressure;Samples;Min_cycle;Max_cycle;Signal;HPM_P1;HPM_P2
2022/08/23 00:02:05;;;;;;;3.92;1.15;;;24.10;44.50;;;;;;2273241;55;20980;-73
2022/08/23 00:04:39;;;;;;;3.33;1.10;;;24.10;44.60;;;;;;2496235;55;21790;-71
2022/08/23 00:07:07;;;;;;;2.30;1.17;;;24.10;44.70;;;;;;2293898;55;21059;-73
2022/08/23 00:09:34;;;;;;;2.67;1.10;;;24.00;44.50;;;;;;2265406;55;20980;-73
2022/08/23 00:12:34;;;;;;;2.20;0.90;;;24.00;44.40;;;;;;2278067;55;21023;-71
2022/08/23 00:15:00;;;;;;;2.53;1.08;;;24.00;44.60;;;;;;2267322;55;21767;-72
2022/08/23 00:17:27;;;;;;;2.80;1.33;;;23.90;44.30;;;;;;2457306;55;21023;-71
2022/08/23 00:19:53;;;;;;;3.60;1.02;;;23.90;44.40;;;;;;2340226;55;21019;-73
2022/08/23 00:22:21;;;;;;;2.15;1.12;;;23.90;44.40;;;;;;2265916;55;21007;-71
2022/08/23 00:24:48;;;;;;;2.10;1.02;;;23.80;44.40;;;;;;2496711;55;21760;-72
2022/08/23 00:27:15;;;;;;;2.75;1.30;;;23.80;44.40;;;;;;2266515;55;21058;-70
2022/08/23 00:29:46;;;;;;;2.75;1.00;;;23.80;44.50;;;;;;2244355;56;21415;-71
2022/08/23 00:32:16;;;;;;;2.15;1.12;;;23.80;44.70;;;;;;2266359;55;20959;-72
2022/08/23 00:34:42;;;;;;;2.10;1.10;;;23.70;44.60;;;;;;2292693;55;21063;-71
2022/08/23 00:37:09;;;;;;;2.75;1.20;;;23.70;44.70;;;;;;2271504;55;21011;-72
2022/08/23 00:39:36;;;;;;;2.40;1.00;;;23.70;44.80;;;;;;2495783;55;20951;-72
2022/08/23 00:47:45;;;;;;;3.55;1.17;;;23.60;44.60;;;;;;2285992;55;20991;-70
2022/08/23 00:57:16;;;;;;;2.40;1.20;;;23.60;44.60;;;;;;2266153;55;21657;-71
2022/08/23 00:59:43;;;;;;;2.00;0.80;;;23.50;44.70;;;;;;2266169;55;20987;-70
2022/08/23 01:02:09;;;;;;;3.15;1.05;;;23.40;44.20;;;;;;2268014;55;20976;-73
2022/08/23 01:04:40;;;;;;;2.05;0.85;;;23.40;44.40;;;;;;2263657;56;21051;-70
2022/08/23 01:07:18;;;;;;;3.70;1.10;;;23.30;44.50;;;;;;2377327;55;21468;-71
2022/08/23 01:09:44;;;;;;;2.42;1.00;;;23.20;44.60;;;;;;2263231;55;21764;-71
2022/08/23 01:12:17;;;;;;;2.10;1.00;;;23.20;44.60;;;;;;2272532;55;20980;-71
2022/08/23 01:15:14;;;;;;;4.95;1.10;;;23.10;44.70;;;;;;2370345;55;21053;-71
2022/08/23 01:17:45;;;;;;;2.72;1.20;;;23.10;44.70;;;;;;2490355;54;20959;-72
2022/08/23 01:20:14;;;;;;;2.58;1.15;;;23.00;44.70;;;;;;2265821;55;20988;-73
2022/08/23 01:23:01;;;;;;;2.62;1.00;;;23.00;44.80;;;;;;2268059;55;20960;-72
2022/08/23 01:25:29;;;;;;;2.08;0.95;;;23.00;45.10;;;;;;2264252;56;21047;-71
2022/08/23 01:27:56;;;;;;;2.28;1.12;;;22.90;44.90;;;;;;2267292;55;21508;-72
2022/08/23 01:30:23;;;;;;;2.80;1.30;;;22.90;45.00;;;;;;2265144;55;21027;-71
2022/08/23 01:32:52;;;;;;;3.08;1.12;;;22.90;45.10;;;;;;2263660;56;21027;-71
2022/08/23 01:35:19;;;;;;;2.12;0.93;;;22.90;45.10;;;;;;2264175;55;20955;-73
2022/08/23 01:37:48;;;;;;;2.58;1.05;;;22.80;45.10;;;;;;2349339;55;20967;-72
2022/08/23 01:40:14;;;;;;;3.10;1.20;;;22.80;45.10;;;;;;2262223;55;20947;-71
2022/08/23 01:42:43;;;;;;;2.80;1.08;;;22.70;45.10;;;;;;2265973;55;20995;-71
2022/08/23 01:45:13;;;;;;;2.37;1.00;;;22.70;45.40;;;;;;2342860;55;20992;-71
2022/08/23 01:47:40;;;;;;;2.30;0.90;;;22.70;45.50;;;;;;2295587;55;21967;-71
2022/08/23 01:50:07;;;;;;;2.08;0.77;;;22.60;45.30;;;;;;2343354;55;21516;-71
2022/08/23 01:52:35;;;;;;;2.58;1.20;;;22.60;45.40;;;;;;2266309;55;21016;-72
2022/08/23 01:55:02;;;;;;;1.80;0.80;;;22.50;45.40;;;;;;2265826;55;21047;-71
2022/08/23 01:57:31;;;;;;;2.67;1.33;;;22.50;45.40;;;;;;2265649;55;20999;-71
2022/08/23 01:59:57;;;;;;;3.42;1.30;;;22.50;45.50;;;;;;2266183;55;20936;-71
2022/08/23 02:02:24;;;;;;;2.53;1.10;;;22.50;45.50;;;;;;2261057;55;20999;-72
2022/08/23 02:04:51;;;;;;;2.33;1.00;;;22.40;45.60;;;;;;2266172;55;20968;-73
2022/08/23 02:07:17;;;;;;;2.50;1.08;;;22.40;45.60;;;;;;2282223;55;20943;-71
2022/08/23 02:09:43;;;;;;;2.78;1.10;;;22.40;45.60;;;;;;2266130;55;20991;-70
2022/08/23 02:12:16;;;;;;;3.20;1.05;;;22.40;45.60;;;;;;2266760;55;20964;-70
2022/08/23 02:14:42;;;;;;;2.17;1.02;;;22.40;45.80;;;;;;2272054;55;21008;-71
2022/08/23 02:17:08;;;;;;;2.33;1.00;;;22.30;45.70;;;;;;2262206;56;20963;-73
2022/08/23 02:19:37;;;;;;;2.47;1.20;;;22.30;45.70;;;;;;2269394;55;20945;-71
2022/08/23 02:22:04;;;;;;;2.78;1.23;;;22.30;45.80;;;;;;2263654;56;21003;-72
2022/08/23 02:24:30;;;;;;;2.17;1.10;;;22.20;45.80;;;;;;2266733;56;20921;-72
2022/08/23 02:27:00;;;;;;;3.03;1.30;;;22.20;45.80;;;;;;2262470;56;20936;-71
2022/08/23 02:29:30;;;;;;;2.78;1.17;;;22.10;45.80;;;;;;2266900;56;21000;-71
2022/08/23 02:31:57;;;;;;;2.45;1.20;;;22.20;46.00;;;;;;2331352;55;21055;-72
2022/08/23 02:34:24;;;;;;;3.03;1.10;;;22.10;45.90;;;;;;2265822;55;20959;-72
2022/08/23 02:37:03;;;;;;;2.58;1.00;;;22.20;46.10;;;;;;2266249;55;21007;-72
2022/08/23 02:39:32;;;;;;;2.20;1.02;;;22.10;46.00;;;;;;2262995;55;21520;-72
2022/08/23 02:41:59;;;;;;;2.60;1.20;;;22.10;46.10;;;;;;2266488;55;20955;-71
2022/08/23 02:44:26;;;;;;;1.90;1.05;;;22.10;46.10;;;;;;2265672;55;21756;-71
2022/08/23 02:46:52;;;;;;;2.35;1.12;;;22.10;46.20;;;;;;2293866;55;21825;-71
2022/08/23 02:49:18;;;;;;;3.75;1.35;;;22.10;46.20;;;;;;2299211;55;20976;-72
2022/08/23 02:51:46;;;;;;;2.53;1.17;;;22.10;46.30;;;;;;2487492;55;21440;-71
2022/08/23 02:54:12;;;;;;;3.22;1.40;;;22.00;46.20;;;;;;2264453;56;20985;-73
2022/08/23 02:56:39;;;;;;;2.72;1.12;;;22.00;46.30;;;;;;2328475;55;21677;-72
2022/08/23 02:59:06;;;;;;;2.83;1.60;;;22.00;46.30;;;;;;2260291;55;20960;-71
2022/08/23 03:01:35;;;;;;;2.83;1.27;;;22.00;46.40;;;;;;2325445;55;21087;-72
2022/08/23 03:04:02;;;;;;;2.45;1.27;;;22.00;46.50;;;;;;2266218;55;20939;-72
2022/08/23 03:06:29;;;;;;;2.40;1.17;;;22.00;46.50;;;;;;2265850;55;20967;-70
2022/08/23 03:08:55;;;;;;;1.95;0.95;;;22.00;46.50;;;;;;2338305;55;21042;-72
2022/08/23 03:11:22;;;;;;;2.50;1.20;;;22.00;46.50;;;;;;2265919;55;21003;-71
2022/08/23 03:13:48;;;;;;;2.55;1.20;;;21.90;46.50;;;;;;2266055;55;20960;-71
2022/08/23 03:16:15;;;;;;;1.87;1.05;;;21.90;46.90;;;;;;2266067;55;21479;-70
2022/08/23 03:18:41;;;;;;;2.60;0.90;;;21.80;46.50;;;;;;2265752;55;21092;-70
2022/08/23 03:21:11;;;;;;;2.55;1.20;;;21.80;46.60;;;;;;2266138;55;21007;-73
2022/08/23 03:23:38;;;;;;;2.47;1.02;;;21.80;46.70;;;;;;2266148;55;21122;-70
2022/08/23 03:26:05;;;;;;;2.37;0.90;;;21.70;46.60;;;;;;2257809;55;21857;-74
2022/08/23 03:28:32;;;;;;;2.20;0.93;;;21.70;46.70;;;;;;2265537;55;21016;-72
2022/08/23 03:30:59;;;;;;;3.42;1.02;;;21.60;46.70;;;;;;2266197;55;21033;-72
2022/08/23 03:33:25;;;;;;;2.42;0.90;;;21.60;46.80;;;;;;2295224;55;21032;-72
2022/08/23 03:35:51;;;;;;;2.37;1.10;;;21.60;46.90;;;;;;2449712;55;21444;-72
2022/08/23 03:38:45;;;;;;;2.53;0.95;;;21.50;46.90;;;;;;2374787;55;21061;-73
2022/08/23 03:41:12;;;;;;;2.12;1.10;;;21.50;47.20;;;;;;2432885;55;21796;-73
2022/08/23 03:43:38;;;;;;;3.17;1.40;;;21.50;47.00;;;;;;2269521;55;21099;-72
2022/08/23 03:46:05;;;;;;;2.85;1.45;;;21.40;47.10;;;;;;2260858;55;20963;-70
2022/08/23 03:48:31;;;;;;;2.90;1.55;;;21.40;47.20;;;;;;2265648;55;20908;-71
2022/08/23 03:50:59;;;;;;;2.95;1.45;;;21.40;47.30;;;;;;2264492;55;21031;-71
2022/08/23 03:53:25;;;;;;;2.60;1.45;;;21.40;47.30;;;;;;2265149;55;21011;-72
2022/08/23 03:55:55;;;;;;;4.05;1.95;;;21.30;47.20;;;;;;2265367;55;21023;-72
2022/08/23 03:58:23;;;;;;;3.10;1.70;;;21.30;47.30;;;;;;2315969;55;22103;-70
2022/08/23 04:00:49;;;;;;;3.12;1.95;;;21.30;47.30;;;;;;2263027;56;21069;-71
2022/08/23 04:03:15;;;;;;;3.10;1.70;;;21.30;47.40;;;;;;2266549;55;21063;-71
2022/08/23 04:05:42;;;;;;;3.25;1.87;;;21.20;47.40;;;;;;2263582;55;20916;-71
2022/08/23 04:08:09;;;;;;;3.00;1.80;;;21.20;47.40;;;;;;2258914;55;20959;-72
2022/08/23 04:10:37;;;;;;;3.00;1.50;;;21.20;47.50;;;;;;2265702;55;20987;-72
2022/08/23 04:13:05;;;;;;;3.08;1.35;;;21.10;47.40;;;;;;2265406;55;21035;-72
2022/08/23 04:15:31;;;;;;;2.85;1.23;;;21.10;47.50;;;;;;2265774;55;20959;-70
2022/08/23 04:17:58;;;;;;;3.05;1.20;;;21.10;47.50;;;;;;2404755;55;21570;-71
2022/08/23 04:20:27;;;;;;;3.75;1.40;;;21.00;47.50;;;;;;2266295;55;20975;-72
2022/08/23 04:22:54;;;;;;;2.30;0.95;;;21.00;47.50;;;;;;2266345;55;21046;-71
2022/08/23 04:25:20;;;;;;;2.55;1.05;;;20.90;47.50;;;;;;2264943;55;20979;-72
2022/08/23 04:27:49;;;;;;;2.85;1.10;;;20.90;47.60;;;;;;2267533;55;21075;-72
2022/08/23 04:30:18;;;;;;;2.85;1.08;;;20.90;47.70;;;;;;2377862;55;21412;-71
2022/08/23 04:32:45;;;;;;;1.98;0.93;;;20.80;47.60;;;;;;2265718;55;21019;-72
2022/08/23 04:35:12;;;;;;;2.45;0.98;;;20.80;47.70;;;;;;2325909;55;21009;-71
2022/08/23 04:37:38;;;;;;;3.03;1.20;;;20.80;47.80;;;;;;2333994;55;21020;-72
2022/08/23 04:42:51;;;;;;;1.95;0.85;;;20.70;47.80;;;;;;2278142;55;21067;-71
2022/08/23 04:45:17;;;;;;;3.70;1.12;;;20.70;47.80;;;;;;2492187;55;20958;-72
2022/08/23 04:47:44;;;;;;;2.53;1.05;;;20.60;48.00;;;;;;2287753;55;20952;-71
2022/08/23 04:50:11;;;;;;;1.83;0.90;;;20.60;48.10;;;;;;2266333;55;21564;-72
2022/08/23 04:52:37;;;;;;;2.90;1.50;;;20.60;48.20;;;;;;2265503;55;21591;-72
2022/08/23 04:55:06;;;;;;;3.70;1.52;;;20.50;48.20;;;;;;2266204;55;21039;-71
2022/08/23 04:57:35;;;;;;;2.53;1.10;;;20.50;48.40;;;;;;2291056;56;20987;-72
2022/08/23 05:00:02;;;;;;;2.30;1.05;;;20.50;48.30;;;;;;2266167;55;20980;-73
2022/08/23 05:02:28;;;;;;;2.53;1.10;;;20.40;48.30;;;;;;2266746;55;21023;-73
2022/08/23 05:04:55;;;;;;;2.90;1.10;;;20.40;48.50;;;;;;2268193;55;22309;-73
2022/08/23 05:07:21;;;;;;;2.05;0.80;;;20.40;48.60;;;;;;2263362;55;20976;-72
2022/08/23 05:09:47;;;;;;;2.20;0.93;;;20.40;48.70;;;;;;2289660;54;21832;-70
2022/08/23 05:12:26;;;;;;;2.47;1.20;;;20.40;48.70;;;;;;2266035;55;20972;-71
2022/08/23 05:14:52;;;;;;;2.70;1.05;;;20.40;49.10;;;;;;2279626;55;21001;-71
2022/08/23 05:17:18;;;;;;;2.95;1.20;;;20.40;49.00;;;;;;2263416;55;21960;-72
2022/08/23 05:19:46;;;;;;;2.40;1.10;;;20.30;49.00;;;;;;2386867;55;20983;-72
2022/08/23 05:22:12;;;;;;;2.10;1.00;;;20.30;49.00;;;;;;2410333;54;21018;-72
2022/08/23 05:24:38;;;;;;;2.15;1.05;;;20.30;49.00;;;;;;2266521;55;20963;-72
2022/08/23 05:27:06;;;;;;;2.90;1.10;;;20.30;49.00;;;;;;2269025;55;20967;-74
2022/08/23 05:29:33;;;;;;;1.95;0.90;;;20.30;49.00;;;;;;2262224;55;20976;-72
2022/08/23 05:31:59;;;;;;;2.67;1.20;;;20.30;49.10;;;;;;2363225;55;20917;-72
2022/08/23 05:34:26;;;;;;;2.10;1.10;;;20.30;49.20;;;;;;2262453;55;21814;-72
2022/08/23 05:36:53;;;;;;;2.50;1.12;;;20.20;49.20;;;;;;2355123;55;20999;-74
2022/08/23 05:39:21;;;;;;;2.17;1.10;;;20.20;49.20;;;;;;2262566;56;21062;-72
2022/08/23 05:41:47;;;;;;;2.42;1.10;;;20.20;49.30;;;;;;2261083;56;21003;-71
2022/08/23 05:44:13;;;;;;;3.70;1.10;;;20.20;49.40;;;;;;2494521;55;21080;-71
2022/08/23 05:46:40;;;;;;;3.08;1.27;;;20.20;49.50;;;;;;2265708;55;20948;-71
2022/08/23 05:49:07;;;;;;;3.33;1.25;;;20.20;50.20;;;;;;2270259;55;20979;-71
2022/08/23 05:51:33;;;;;;;3.25;1.40;;;20.20;49.60;;;;;;2266069;55;21012;-73
2022/08/23 05:54:02;;;;;;;3.20;1.30;;;20.20;49.80;;;;;;2259185;55;21040;-72
2022/08/23 05:56:30;;;;;;;3.12;1.50;;;20.20;50.00;;;;;;2263544;56;20993;-75
2022/08/23 05:58:58;;;;;;;3.00;1.52;;;20.20;50.10;;;;;;2263746;55;22151;-71
2022/08/23 06:01:28;;;;;;;3.92;1.50;;;20.20;50.20;;;;;;2331253;55;21047;-72
2022/08/23 06:03:55;;;;;;;2.50;1.12;;;20.30;50.40;;;;;;2267433;55;21016;-70
2022/08/23 06:06:21;;;;;;;3.08;1.50;;;20.30;50.40;;;;;;2262540;55;20983;-72
2022/08/23 06:08:47;;;;;;;3.20;1.50;;;20.30;50.40;;;;;;2265331;55;20964;-73
2022/08/23 06:11:19;;;;;;;3.37;1.60;;;20.30;50.50;;;;;;2266111;55;21485;-71
2022/08/23 06:13:47;;;;;;;2.92;1.30;;;20.40;50.80;;;;;;2479963;55;20953;-71
2022/08/23 06:16:19;;;;;;;3.17;1.50;;;20.30;50.60;;;;;;2268703;55;20964;-72
2022/08/23 06:18:45;;;;;;;2.80;1.27;;;20.40;50.70;;;;;;2263738;56;21004;-71
2022/08/23 06:21:12;;;;;;;3.30;1.52;;;20.40;50.80;;;;;;2263423;56;21036;-71
2022/08/23 06:23:40;;;;;;;3.58;1.52;;;20.50;51.00;;;;;;2307612;55;21055;-71
2022/08/23 06:26:15;;;;;;;3.53;1.98;;;20.50;51.00;;;;;;2493985;55;21020;-72
2022/08/23 06:28:42;;;;;;;3.25;1.67;;;20.60;51.60;;;;;;2368847;56;20948;-71
2022/08/23 06:31:09;;;;;;;4.68;1.80;;;20.60;51.20;;;;;;2265627;55;20939;-72
2022/08/23 06:33:42;;;;;;;2.78;1.48;;;20.70;51.30;;;;;;2265980;55;20959;-72
2022/08/23 06:36:11;;;;;;;3.77;1.77;;;20.70;51.60;;;;;;2265627;55;21488;-73
2022/08/23 06:38:38;;;;;;;4.82;1.85;;;20.70;51.60;;;;;;2305966;55;20975;-70
2022/08/23 06:41:08;;;;;;;4.50;1.83;;;20.80;51.70;;;;;;2421532;55;20972;-71
2022/08/23 06:43:35;;;;;;;3.85;1.80;;;20.90;51.90;;;;;;2262537;55;20975;-69
2022/08/23 06:46:15;;;;;;;4.10;1.58;;;20.90;52.00;;;;;;2331936;55;21819;-72
2022/08/23 06:48:44;;;;;;;4.18;1.58;;;21.00;52.40;;;;;;2323213;55;20932;-71
2022/08/23 06:51:19;;;;;;;4.07;1.83;;;21.10;52.40;;;;;;2265811;55;21907;-71
2022/08/23 06:53:46;;;;;;;3.00;1.77;;;21.20;52.50;;;;;;2243870;56;21079;-71
2022/08/23 06:56:12;;;;;;;3.62;1.90;;;21.20;52.40;;;;;;2267048;55;21872;-71
2022/08/23 06:58:39;;;;;;;3.35;1.58;;;21.30;52.40;;;;;;2265235;55;20967;-70
2022/08/23 07:01:37;;;;;;;3.30;1.60;;;21.40;52.30;;;;;;2265984;55;21004;-71
2022/08/23 07:04:12;;;;;;;2.87;1.45;;;21.60;52.70;;;;;;2280301;55;20955;-71
2022/08/23 07:06:39;;;;;;;3.25;1.52;;;21.70;52.20;;;;;;2271241;55;21784;-71
2022/08/23 07:09:05;;;;;;;3.05;1.60;;;21.70;52.00;;;;;;2264485;56;21476;-73
2022/08/23 07:11:32;;;;;;;2.90;1.40;;;21.90;52.00;;;;;;2264123;55;20979;-71
2022/08/23 07:14:00;;;;;;;2.45;1.40;;;21.90;51.90;;;;;;2265350;55;21053;-71
2022/08/23 07:16:35;;;;;;;4.45;1.90;;;22.00;51.90;;;;;;2266025;55;20976;-71
2022/08/23 07:19:04;;;;;;;3.12;1.60;;;22.10;52.50;;;;;;2265651;55;21012;-71
2022/08/23 07:21:30;;;;;;;3.58;1.75;;;22.20;52.30;;;;;;2265781;55;21327;-71
2022/08/23 07:24:02;;;;;;;4.20;1.90;;;22.30;52.40;;;;;;2265836;56;21028;-71
2022/08/23 07:26:29;;;;;;;;;;;22.50;52.60;;;;;;2272925;56;21021;-71
2022/08/23 07:28:56;;;;;;;3.20;1.67;;;22.60;52.70;;;;;;2261116;55;20068;-71
2022/08/23 07:31:29;;;;;;;2.85;1.50;;;22.60;52.30;;;;;;2452217;55;21758;-70
2022/08/23 07:33:57;;;;;;;3.05;1.30;;;22.70;52.40;;;;;;2265780;55;22058;-71
2022/08/23 07:36:25;;;;;;;3.03;1.35;;;22.80;52.30;;;;;;2262159;56;20928;-71
2022/08/23 07:38:54;;;;;;;3.60;1.42;;;22.90;52.20;;;;;;2261288;55;21412;-73
2022/08/23 07:41:23;;;;;;;4.15;1.90;;;23.00;52.20;;;;;;2242536;56;20983;-71
2022/08/23 07:43:53;;;;;;;3.50;1.60;;;23.10;52.30;;;;;;2267442;55;21151;-71
2022/08/23 07:46:20;;;;;;;3.20;1.52;;;23.20;52.30;;;;;;2263321;55;21048;-71
2022/08/23 07:48:46;;;;;;;3.15;1.73;;;23.30;52.30;;;;;;2271367;55;20947;-71
2022/08/23 07:51:20;;;;;;;2.90;1.65;;;23.40;52.20;;;;;;2271830;55;20984;-72
2022/08/23 07:53:49;;;;;;;2.80;1.50;;;23.50;52.10;;;;;;2260895;55;20943;-73
2022/08/23 07:56:16;;;;;;;2.60;1.30;;;23.60;52.00;;;;;;2276886;55;21006;-73
2022/08/23 07:58:43;;;;;;;3.33;1.70;;;23.70;51.90;;;;;;2266151;55;20962;-75
2022/08/23 08:01:17;;;;;;;3.50;1.75;;;23.80;51.90;;;;;;2495283;55;21431;-69
2022/08/23 08:03:47;;;;;;;2.78;1.50;;;23.90;52.50;;;;;;2258005;56;21009;-72
2022/08/23 08:06:18;;;;;;;3.35;1.90;;;24.10;51.90;;;;;;2262170;55;21027;-71
2022/08/23 08:08:44;;;;;;;3.10;1.42;;;24.20;51.80;;;;;;2306345;55;21027;-70
2022/08/23 08:11:11;;;;;;;2.90;1.52;;;24.30;51.70;;;;;;2265041;55;21011;-69
2022/08/23 08:13:38;;;;;;;3.12;1.58;;;24.30;51.50;;;;;;2265900;55;20992;-71
2022/08/23 08:16:05;;;;;;;3.20;1.67;;;24.40;51.40;;;;;;2275319;55;21805;-69
2022/08/23 08:18:31;;;;;;;3.20;1.67;;;24.50;51.50;;;;;;2328539;55;20964;-72
2022/08/23 08:20:58;;;;;;;2.97;1.58;;;24.60;51.40;;;;;;2263831;56;20928;-69
2022/08/23 08:23:24;;;;;;;3.87;1.98;;;24.70;51.30;;;;;;2264721;55;20944;-69
2022/08/23 08:26:00;;;;;;;2.97;1.70;;;24.80;51.50;;;;;;2257089;56;20964;-70
2022/08/23 08:28:26;;;;;;;3.10;1.52;;;24.90;51.20;;;;;;2264288;56;21019;-70
2022/08/23 08:30:52;;;;;;;2.62;1.48;;;25.00;51.20;;;;;;2259589;56;20964;-70
2022/08/23 08:33:19;;;;;;;2.72;1.45;;;25.10;51.20;;;;;;2265398;55;21232;-72
2022/08/23 08:35:48;;;;;;;2.90;1.60;;;25.20;51.20;;;;;;2314245;55;21028;-72
2022/08/23 08:38:15;;;;;;;2.75;1.40;;;25.30;51.00;;;;;;2269896;55;20988;-66
2022/08/23 08:40:41;;;;;;;3.12;1.55;;;25.40;50.90;;;;;;2416281;55;21009;-70
2022/08/23 08:44:00;;;;;;;3.28;1.70;;;25.50;50.70;;;;;;2371023;55;21096;-69
2022/08/23 08:47:16;;;;;;;3.00;1.90;;;25.60;50.50;;;;;;2267211;56;21338;-70
2022/08/23 08:49:46;;;;;;;3.70;1.85;;;25.70;50.10;;;;;;2267382;56;20937;-67
2022/08/23 08:52:23;;;;;;;3.33;1.33;;;25.80;50.30;;;;;;2279970;55;20957;-70
2022/08/23 08:54:51;;;;;;;4.22;2.00;;;25.90;50.40;;;;;;2460006;55;20988;-68
2022/08/23 08:57:19;;;;;;;3.97;1.95;;;25.90;50.40;;;;;;2263271;55;20941;-70
2022/08/23 08:59:55;;;;;;;3.05;1.75;;;26.00;50.30;;;;;;2265992;56;21517;-69
2022/08/23 09:02:21;;;;;;;5.07;1.87;;;26.10;50.50;;;;;;2360689;55;20993;-69
2022/08/23 09:04:48;;;;;;;3.20;1.70;;;26.20;50.20;;;;;;2246942;56;20956;-69
2022/08/23 09:07:37;;;;;;;5.47;1.70;;;26.30;49.90;;;;;;2418534;55;21099;-69
2022/08/23 09:10:29;;;;;;;3.97;1.80;;;26.40;50.00;;;;;;2268938;55;21150;-68
2022/08/23 09:13:32;;;;;;;4.55;1.90;;;26.50;49.60;;;;;;2264189;55;20985;-68
2022/08/23 09:18:51;;;;;;;3.15;1.60;;;26.60;49.70;;;;;;2267054;56;21062;-70
2022/08/23 09:21:19;;;;;;;3.15;1.55;;;26.70;50.00;;;;;;2266344;55;21362;-69
2022/08/23 09:23:46;;;;;;;4.07;2.10;;;26.80;49.50;;;;;;2270938;56;21502;-68
2022/08/23 09:26:26;;;;;;;4.47;1.87;;;26.90;49.50;;;;;;2377467;55;21037;-71
2022/08/23 09:28:54;;;;;;;2.75;1.48;;;27.00;49.10;;;;;;2264395;56;21777;-69
2022/08/23 09:31:43;;;;;;;3.60;1.70;;;27.00;49.00;;;;;;2264631;56;20996;-69
2022/08/23 09:34:42;;;;;;;2.85;1.58;;;27.10;48.70;;;;;;2268961;55;21880;-68
2022/08/23 09:37:22;;;;;;;2.85;1.50;;;27.20;48.80;;;;;;2260709;56;20924;-68
2022/08/23 09:39:52;;;;;;;3.62;1.50;;;27.20;48.70;;;;;;2270238;56;21080;-70
2022/08/23 09:42:35;;;;;;;4.05;1.45;;;27.30;48.60;;;;;;2264463;56;21499;-69
2022/08/23 09:45:26;;;;;;;3.30;1.42;;;27.40;48.40;;;;;;2338219;55;21099;-73
2022/08/23 09:47:55;;;;;;;4.43;1.52;;;27.40;48.40;;;;;;2263921;56;20978;-71
2022/08/23 09:50:44;;;;;;;3.35;1.55;;;27.50;49.20;;;;;;2275700;55;20937;-69
2022/08/23 09:53:12;;;;;;;3.72;1.40;;;27.60;48.80;;;;;;2263274;56;21051;-69
2022/08/23 09:55:50;;;;;;;3.20;1.30;;;27.60;48.30;;;;;;2268512;56;20961;-70
2022/08/23 09:58:35;;;;;;;2.92;1.40;;;27.70;48.10;;;;;;2465467;55;21836;-69
2022/08/23 10:01:24;;;;;;;2.62;1.20;;;27.80;47.70;;;;;;2266169;55;20928;-69
2022/08/23 10:04:13;;;;;;;2.22;1.10;;;27.90;47.40;;;;;;2264339;56;21016;-69
2022/08/23 10:06:40;;;;;;;2.42;1.23;;;28.00;47.20;;;;;;2329635;55;21007;-69
2022/08/23 10:09:28;;;;;;;2.55;1.30;;;28.00;47.20;;;;;;2267532;55;20976;-69
2022/08/23 10:11:56;;;;;;;3.55;1.70;;;28.10;46.70;;;;;;2262717;55;21742;-67
2022/08/23 10:14:24;;;;;;;3.03;1.27;;;28.20;46.90;;;;;;2265031;56;20988;-71
2022/08/23 10:17:13;;;;;;;2.03;0.82;;;28.20;46.50;;;;;;2241666;56;21785;-70
2022/08/23 10:19:56;;;;;;;2.80;1.20;;;28.30;45.90;;;;;;2249354;56;21700;-71
2022/08/23 10:22:25;;;;;;;2.95;1.10;;;28.40;45.80;;;;;;2265254;55;20964;-69
2022/08/23 10:25:38;;;;;;;2.50;1.15;;;28.40;46.20;;;;;;2264600;55;20987;-69
2022/08/23 10:34:29;;;;;;;4.12;1.20;;;28.60;46.00;;;;;;2267142;55;21019;-69
2022/08/23 10:37:25;;;;;;;4.03;1.10;;;28.70;45.30;;;;;;2356782;55;20955;-70
2022/08/23 10:40:16;;;;;;;3.20;1.00;;;28.80;45.60;;;;;;2267427;55;21073;-68
2022/08/23 10:45:52;;;;;;;2.35;1.00;;;28.90;45.30;;;;;;2385069;55;21319;-69
2022/08/23 10:48:27;;;;;;;2.37;1.08;;;29.00;45.40;;;;;;2263299;55;21056;-69
2022/08/23 10:51:01;;;;;;;2.47;1.00;;;29.10;45.40;;;;;;2249072;56;21525;-69
2022/08/23 10:53:55;;;;;;;3.25;1.20;;;29.10;45.00;;;;;;2489589;55;21213;-71
2022/08/23 10:56:23;;;;;;;2.45;1.10;;;29.20;44.70;;;;;;2264168;56;20985;-69
2022/08/23 10:59:00;;;;;;;5.07;1.10;;;29.30;45.00;;;;;;2265405;56;21003;-69
2022/08/23 11:02:16;;;;;;;2.10;1.00;;;29.30;44.20;;;;;;2483589;55;20972;-69
2022/08/23 11:05:05;;;;;;;1.98;0.93;;;29.40;44.10;;;;;;2264696;55;21024;-69
2022/08/23 11:07:42;;;;;;;2.00;0.93;;;29.50;44.50;;;;;;2264872;55;20944;-70
2022/08/23 11:10:24;;;;;;;2.62;1.10;;;29.60;45.30;;;;;;2292107;54;21040;-69
2022/08/23 11:12:59;;;;;;;2.70;1.20;;;29.70;44.70;;;;;;2274001;54;20984;-72
2022/08/23 11:15:59;;;;;;;3.12;1.40;;;29.70;44.40;;;;;;2270404;55;20981;-70
2022/08/23 11:18:45;;;;;;;2.53;1.08;;;29.80;43.90;;;;;;2262529;55;21125;-72
2022/08/23 11:21:45;;;;;;;2.53;1.30;;;29.90;43.40;;;;;;2265034;55;21047;-69
2022/08/23 11:24:32;;;;;;;2.55;1.12;;;30.00;43.60;;;;;;2267772;55;21000;-73
2022/08/23 11:27:00;;;;;;;2.87;1.37;;;30.00;43.40;;;;;;2314968;55;20993;-69
2022/08/23 11:29:29;;;;;;;2.70;1.30;;;30.10;43.60;;;;;;2267030;55;21011;-72
2022/08/23 11:32:13;;;;;;;2.30;1.10;;;30.20;43.30;;;;;;2298475;55;20961;-69
2022/08/23 11:34:45;;;;;;;2.65;1.20;;;30.20;43.00;;;;;;2261654;56;20940;-72
2022/08/23 11:48:32;;;;;;;3.03;1.02;;;30.30;43.70;;;;;;2268733;55;21496;-71
2022/08/23 11:51:22;;;;;;;2.05;0.98;;;30.40;42.90;;;;;;2267493;55;21887;-69
2022/08/23 11:57:07;;;;;;;3.55;1.30;;;30.80;42.30;;;;;;2263185;56;20956;-69
2022/08/23 12:00:07;;;;;;;2.42;1.00;;;30.80;41.80;;;;;;2267609;55;20979;-69
2022/08/23 12:02:51;;;;;;;2.35;0.98;;;31.00;41.60;;;;;;2264858;55;20944;-69
2022/08/23 12:06:34;;;;;;;1.87;0.88;;;31.00;41.40;;;;;;2260699;56;21050;-69
2022/08/23 12:09:03;;;;;;;2.40;1.00;;;31.10;41.20;;;;;;2268722;56;21038;-71
2022/08/23 12:13:09;;;;;;;2.20;1.05;;;31.10;42.00;;;;;;2267539;56;20996;-71
2022/08/23 12:16:08;;;;;;;2.53;0.93;;;31.20;40.70;;;;;;2267644;55;20945;-69
2022/08/23 12:18:59;;;;;;;2.33;0.90;;;31.30;40.40;;;;;;2336240;55;21048;-69
2022/08/23 12:21:47;;;;;;;3.12;1.20;;;31.30;40.70;;;;;;2266392;55;20977;-71
2022/08/23 12:24:23;;;;;;;2.42;0.88;;;31.40;40.30;;;;;;2275380;55;20948;-71
2022/08/23 12:27:28;;;;;;;2.30;1.00;;;31.40;40.00;;;;;;2264670;56;21013;-67
2022/08/23 12:31:31;;;;;;;2.25;1.10;;;31.40;39.60;;;;;;2266714;55;21795;-69
2022/08/23 12:34:24;;;;;;;2.30;0.90;;;31.50;40.00;;;;;;2270382;55;21051;-69
2022/08/23 12:40:05;;;;;;;2.95;1.27;;;31.60;39.30;;;;;;2267217;55;20936;-71
2022/08/23 12:42:34;;;;;;;1.75;0.80;;;31.60;39.30;;;;;;2274889;55;20953;-68
2022/08/23 12:45:10;;;;;;;2.85;1.10;;;31.70;39.30;;;;;;2299697;55;20992;-68
2022/08/23 12:47:36;;;;;;;2.20;1.00;;;31.70;39.00;;;;;;2264662;56;21039;-69
2022/08/23 12:50:20;;;;;;;2.58;1.02;;;31.80;39.10;;;;;;2265145;54;21149;-70
2022/08/23 12:52:57;;;;;;;3.28;1.10;;;31.80;38.20;;;;;;2267975;56;20961;-70
2022/08/23 12:55:27;;;;;;;2.50;1.00;;;31.90;38.40;;;;;;2270159;56;21000;-69
2022/08/23 12:57:55;;;;;;;2.70;1.00;;;31.90;38.50;;;;;;2265775;56;21043;-70
2022/08/23 13:00:51;;;;;;;2.97;1.17;;;31.90;38.40;;;;;;2262001;56;20960;-67
2022/08/23 13:03:20;;;;;;;2.50;1.10;;;32.00;37.80;;;;;;2267039;55;21019;-68
2022/08/23 13:05:51;;;;;;;2.33;0.90;;;32.00;38.10;;;;;;2264804;55;21016;-71
2022/08/23 13:08:27;;;;;;;2.57;1.03;;;32.10;37.90;;;;;;2293498;55;20948;-68
2022/08/23 13:10:53;;;;;;;2.10;0.90;;;32.10;37.30;;;;;;2262780;55;21887;-68
2022/08/23 13:13:23;;;;;;;2.28;1.00;;;32.10;37.60;;;;;;2313840;55;21068;-69
2022/08/23 13:15:56;;;;;;;2.22;0.98;;;32.20;37.30;;;;;;2321451;55;20975;-71
2022/08/23 13:18:40;;;;;;;2.15;0.93;;;32.20;37.10;;;;;;2267034;56;20979;-71
2022/08/23 13:21:26;;;;;;;2.05;1.08;;;32.20;36.60;;;;;;2309202;55;21470;-71
2022/08/23 13:23:53;;;;;;;2.78;0.90;;;32.30;36.40;;;;;;2252087;56;21092;-71
2022/08/23 13:26:38;;;;;;;2.95;1.10;;;32.30;36.70;;;;;;2357237;55;20978;-70
2022/08/23 13:29:26;;;;;;;2.15;1.02;;;32.30;36.00;;;;;;2264522;55;20989;-69
2022/08/23 13:31:58;;;;;;;2.33;1.15;;;32.30;36.20;;;;;;2266845;55;21036;-69
2022/08/23 13:34:45;;;;;;;2.25;0.90;;;32.40;36.20;;;;;;2262754;55;21012;-69
2022/08/23 13:37:31;;;;;;;1.87;1.00;;;32.40;35.80;;;;;;2378346;55;20984;-70
2022/08/23 13:40:09;;;;;;;1.65;0.90;;;32.50;35.90;;;;;;2310416;55;20932;-70
2022/08/23 13:42:43;;;;;;;2.37;1.00;;;32.50;35.40;;;;;;2404191;55;21489;-69
2022/08/23 13:45:13;;;;;;;2.42;1.02;;;32.50;35.50;;;;;;2293818;55;21025;-70
2022/08/23 13:49:17;;;;;;;3.15;1.30;;;32.60;35.20;;;;;;2270279;55;22088;-70
2022/08/23 13:52:07;;;;;;;2.37;1.10;;;32.60;35.00;;;;;;2264056;55;21004;-71
2022/08/23 13:54:58;;;;;;;2.15;0.93;;;32.70;34.80;;;;;;2269327;55;21060;-69
2022/08/23 13:57:25;;;;;;;2.00;0.90;;;32.70;35.40;;;;;;2378850;55;20960;-72
2022/08/23 13:59:54;;;;;;;4.30;1.20;;;32.80;35.30;;;;;;2267090;55;20925;-70
2022/08/23 14:02:21;;;;;;;2.92;1.05;;;32.80;35.20;;;;;;2266182;55;21003;-69
2022/08/23 14:04:48;;;;;;;2.33;1.00;;;32.80;35.10;;;;;;2261146;56;20960;-70
2022/08/23 14:07:14;;;;;;;2.00;0.90;;;32.90;35.10;;;;;;2317669;55;20988;-69